Time;durP1;ratioP1;P1;durP2;ratioP2;P2;SDS_P1;SDS_P2;PMS_P1;PMS_P2;Temp;Humidity;BMP_temperature;BMP_pressure;BME280_temperature;BME280_humidity;BME280_pressure;Samples;Min_cycle;Max_cycle;Signal;HPM_P1;HPM_P2
2021/10/12 00:01:04;;;;;;;;;;;;;;;16.70;73.88;102152.47;5018330;28;907;-62
2021/10/12 00:03:29;;;;;;;;;;;;;;;16.71;73.62;102147.94;5033301;28;1917;-63
2021/10/12 00:05:54;;;;;;;;;;;;;;;16.70;73.61;102147.09;5018448;28;882;-63
2021/10/12 00:08:19;;;;;;;;;;;;;;;16.71;73.64;102146.13;5018431;28;1073;-63
2021/10/12 00:10:44;;;;;;;;;;;;;;;16.70;73.36;102147.09;5018253;28;918;-63
2021/10/12 00:13:09;;;;;;;;;;;;;;;16.69;73.39;102141.81;5018534;28;998;-63
2021/10/12 00:15:34;;;;;;;;;;;;;;;16.69;74.01;102142.69;5018279;28;1026;-65
2021/10/12 00:17:59;;;;;;;;;;;;;;;16.69;73.90;102133.75;5018333;28;993;-66
2021/10/12 00:20:24;;;;;;;;;;;;;;;16.69;74.17;102139.13;5017875;28;1897;-66
2021/10/12 00:22:49;;;;;;;;;;;;;;;16.67;74.07;102140.09;5018166;28;1780;-65
2021/10/12 00:25:14;;;;;;;;;;;;;;;16.68;73.92;102143.66;5018315;28;1261;-66
2021/10/12 00:27:40;;;;;;;;;;;;;;;16.67;74.47;102136.53;5018103;28;1005;-64
2021/10/12 00:30:05;;;;;;;;;;;;;;;16.68;73.95;102132.88;5017848;28;1183;-64
2021/10/12 00:32:30;;;;;;;;;;;;;;;16.67;74.17;102120.38;5018413;28;1069;-63
2021/10/12 00:34:55;;;;;;;;;;;;;;;16.67;73.81;102123.06;5017920;28;978;-64
2021/10/12 00:37:20;;;;;;;;;;;;;;;16.66;73.83;102118.66;5017674;28;1663;-63
2021/10/12 00:39:45;;;;;;;;;;;;;;;16.65;73.98;102108.88;5017723;28;1918;-66
2021/10/12 00:42:10;;;;;;;;;;;;;;;16.65;73.76;102115.13;5018027;28;974;-66
2021/10/12 00:44:35;;;;;;;;;;;;;;;16.64;74.25;102124.19;5017735;28;812;-67
2021/10/12 00:47:00;;;;;;;;;;;;;;;16.64;74.10;102123.31;5017752;28;1097;-66
2021/10/12 00:49:25;;;;;;;;;;;;;;;16.65;74.06;102115.13;5017903;28;895;-63
2021/10/12 00:51:50;;;;;;;;;;;;;;;16.63;73.99;102094.69;5017669;28;781;-64
2021/10/12 00:54:15;;;;;;;;;;;;;;;16.63;74.10;102110.81;5032765;28;1274;-64
2021/10/12 00:56:40;;;;;;;;;;;;;;;16.61;73.89;102108.22;5017168;28;1776;-64
2021/10/12 00:59:06;;;;;;;;;;;;;;;16.61;74.42;102112.72;5016967;28;1902;-64
2021/10/12 01:01:31;;;;;;;;;;;;;;;16.60;74.33;102103.78;5017477;28;832;-65
2021/10/12 01:03:56;;;;;;;;;;;;;;;16.61;74.38;102100.13;5017471;28;1089;-66
2021/10/12 01:06:21;;;;;;;;;;;;;;;16.60;74.26;102101.09;5017385;28;982;-67
2021/10/12 01:08:46;;;;;;;;;;;;;;;16.60;73.83;102089.47;5017312;28;804;-67
2021/10/12 01:11:11;;;;;;;;;;;;;;;16.61;74.08;102091.19;5017190;28;990;-67
2021/10/12 01:13:36;;;;;;;;;;;;;;;16.59;74.27;102094.00;5016291;28;1580;-66
2021/10/12 01:16:02;;;;;;;;;;;;;;;16.59;74.02;102080.53;5017252;28;1018;-65
2021/10/12 01:18:27;;;;;;;;;;;;;;;16.58;73.87;102075.25;5017425;28;819;-66
2021/10/12 01:20:52;;;;;;;;;;;;;;;16.59;74.31;102079.69;5017053;28;1878;-66
2021/10/12 01:23:17;;;;;;;;;;;;;;;16.59;74.21;102082.38;5017066;28;837;-66
2021/10/12 01:25:42;;;;;;;;;;;;;;;16.58;73.84;102076.13;5017248;28;1289;-66
2021/10/12 01:28:08;;;;;;;;;;;;;;;16.58;74.19;102069.88;5016770;28;831;-66
2021/10/12 01:30:33;;;;;;;;;;;;;;;16.58;74.21;102067.19;5016958;28;1539;-66
2021/10/12 01:32:58;;;;;;;;;;;;;;;16.56;74.04;102055.66;5031980;28;1776;-66
2021/10/12 01:35:23;;;;;;;;;;;;;;;16.56;74.12;102061.91;5016680;28;963;-65
2021/10/12 01:37:49;;;;;;;;;;;;;;;16.56;74.36;102055.66;5016810;28;931;-66
2021/10/12 01:40:15;;;;;;;;;;;;;;;16.57;74.11;102046.63;5016507;28;1914;-66
2021/10/12 01:42:41;;;;;;;;;;;;;;;16.56;73.96;102047.59;5017003;28;839;-66
2021/10/12 01:45:06;;;;;;;;;;;;;;;16.57;74.14;102043.94;5016635;28;851;-66
2021/10/12 01:47:31;;;;;;;;;;;;;;;16.54;73.83;102036.94;5016539;28;780;-66
2021/10/12 01:49:56;;;;;;;;;;;;;;;16.54;73.97;102034.25;5016552;28;1809;-66
2021/10/12 01:52:21;;;;;;;;;;;;;;;16.53;73.83;102037.03;5016421;28;930;-64
2021/10/12 01:54:46;;;;;;;;;;;;;;;16.51;73.81;102026.38;5016358;28;883;-65
2021/10/12 01:57:11;;;;;;;;;;;;;;;16.52;73.99;102022.72;5016369;28;1789;-65
2021/10/12 01:59:36;;;;;;;;;;;;;;;16.52;74.38;102013.78;5016034;28;1894;-65
2021/10/12 02:02:02;;;;;;;;;;;;;;;16.50;74.36;102013.03;5016364;28;931;-65
2021/10/12 02:04:27;;;;;;;;;;;;;;;16.48;74.64;102013.13;5016643;28;819;-65
2021/10/12 02:06:52;;;;;;;;;;;;;;;16.48;74.15;102006.94;5016264;28;816;-65
2021/10/12 02:09:19;;;;;;;;;;;;;;;16.49;73.83;102011.31;5014708;28;1888;-65
2021/10/12 02:11:44;;;;;;;;;;;;;;;16.48;74.31;102006.94;5031269;28;1986;-65
2021/10/12 02:14:09;;;;;;;;;;;;;;;16.48;74.30;102009.63;5016140;28;1037;-68
2021/10/12 02:16:34;;;;;;;;;;;;;;;16.47;74.16;101999.81;5031187;28;1212;-68
2021/10/12 02:18:59;;;;;;;;;;;;;;;16.46;74.45;101985.50;5016108;28;1960;-69
2021/10/12 02:21:24;;;;;;;;;;;;;;;16.46;74.27;101984.66;5016027;28;1010;-69
2021/10/12 02:23:49;;;;;;;;;;;;;;;16.44;74.29;101983.91;5015397;28;1838;-69
2021/10/12 02:26:14;;;;;;;;;;;;;;;16.44;74.33;101981.19;5015781;28;749;-68
2021/10/12 02:28:39;;;;;;;;;;;;;;;16.45;74.16;101972.16;5031184;28;831;-64
2021/10/12 02:31:04;;;;;;;;;;;;;;;16.43;74.31;101974.97;5015608;28;1212;-64
2021/10/12 02:33:29;;;;;;;;;;;;;;;16.44;74.34;101973.13;5015868;28;1077;-64
2021/10/12 02:35:54;;;;;;;;;;;;;;;16.43;74.58;101969.56;5015579;28;800;-64
2021/10/12 02:38:19;;;;;;;;;;;;;;;16.43;74.58;101974.09;5015818;28;1001;-64
2021/10/12 02:40:45;;;;;;;;;;;;;;;16.42;74.51;101973.25;5015277;28;1938;-64
2021/10/12 02:43:10;;;;;;;;;;;;;;;16.41;74.33;101966.13;5015616;28;804;-67
2021/10/12 02:45:35;;;;;;;;;;;;;;;16.42;74.55;101964.31;5015519;28;864;-67
2021/10/12 02:48:00;;;;;;;;;;;;;;;16.40;74.08;101959.03;5015353;28;1869;-67
2021/10/12 02:50:25;;;;;;;;;;;;;;;16.40;74.43;101964.41;5015609;28;965;-67
2021/10/12 02:52:50;;;;;;;;;;;;;;;16.40;74.36;101963.56;5015408;28;847;-67
2021/10/12 02:55:15;;;;;;;;;;;;;;;16.40;74.41;101961.72;5015575;28;1002;-67
2021/10/12 02:57:40;;;;;;;;;;;;;;;16.39;74.54;101957.31;5015257;28;1885;-67
2021/10/12 03:00:05;;;;;;;;;;;;;;;16.39;74.65;101943.00;5030492;28;1902;-67
2021/10/12 03:02:30;;;;;;;;;;;;;;;16.39;74.25;101940.31;5015400;28;1271;-63
2021/10/12 03:04:55;;;;;;;;;;;;;;;16.37;74.60;101931.47;5015286;28;1017;-67
2021/10/12 03:07:20;;;;;;;;;;;;;;;16.37;74.49;101915.34;5015213;28;882;-67
2021/10/12 03:09:46;;;;;;;;;;;;;;;16.37;74.38;101907.28;5015360;28;1060;-67
2021/10/12 03:12:11;;;;;;;;;;;;;;;16.36;74.36;101901.03;5014959;28;931;-67
2021/10/12 03:14:36;;;;;;;;;;;;;;;16.35;74.19;101893.94;5015328;28;1021;-67
2021/10/12 03:17:01;;;;;;;;;;;;;;;16.34;74.36;101889.50;5014781;28;1868;-65
2021/10/12 03:19:26;;;;;;;;;;;;;;;16.35;74.22;101902.00;5015057;28;1886;-64
2021/10/12 03:22:07;;;;;;;;;;;;;;;16.33;73.93;101893.19;5014789;28;848;-65
2021/10/12 03:24:32;;;;;;;;;;;;;;;16.32;74.11;101892.31;5014991;28;1461;-64
2021/10/12 03:26:57;;;;;;;;;;;;;;;16.31;74.19;101885.22;5014881;28;1073;-65
2021/10/12 03:29:23;;;;;;;;;;;;;;;16.31;74.07;101884.34;5015134;28;1232;-64
2021/10/12 03:31:48;;;;;;;;;;;;;;;16.31;73.60;101895.97;5014750;28;820;-65
2021/10/12 03:34:13;;;;;;;;;;;;;;;16.30;74.04;101888.88;5013167;28;2738;-64
2021/10/12 03:36:38;;;;;;;;;;;;;;;16.31;74.11;101900.50;5014832;28;1029;-63
2021/10/12 03:39:03;;;;;;;;;;;;;;;16.30;74.17;101896.94;5014761;28;1918;-63
2021/10/12 03:41:28;;;;;;;;;;;;;;;16.30;73.89;101879.97;5014725;28;919;-64
2021/10/12 03:43:53;;;;;;;;;;;;;;;16.30;74.05;101879.97;5014911;28;812;-64
2021/10/12 03:46:18;;;;;;;;;;;;;;;16.29;74.11;101879.13;5014868;28;781;-64
2021/10/12 03:48:43;;;;;;;;;;;;;;;16.29;74.22;101872.88;5014840;28;982;-64
2021/10/12 03:51:08;;;;;;;;;;;;;;;16.27;74.35;101870.28;5014728;28;1798;-64
2021/10/12 03:53:34;;;;;;;;;;;;;;;16.28;73.79;101869.31;5014744;28;863;-64
2021/10/12 03:55:59;;;;;;;;;;;;;;;16.27;74.10;101867.59;5014626;28;910;-65
2021/10/12 03:58:24;;;;;;;;;;;;;;;16.27;73.84;101867.59;5014513;28;1798;-65
2021/10/12 04:00:49;;;;;;;;;;;;;;;16.26;74.17;101865.88;5014593;28;1910;-65
2021/10/12 04:03:14;;;;;;;;;;;;;;;16.27;73.87;101864.91;5014732;28;1002;-64
2021/10/12 04:05:39;;;;;;;;;;;;;;;16.26;74.00;101857.81;5014727;28;911;-64
2021/10/12 04:08:04;;;;;;;;;;;;;;;16.26;73.98;101856.94;5014390;28;1737;-65
2021/10/12 04:10:29;;;;;;;;;;;;;;;16.25;73.96;101857.91;5014397;28;835;-65
2021/10/12 04:12:54;;;;;;;;;;;;;;;16.25;74.22;101856.09;5014757;28;914;-65
2021/10/12 04:15:19;;;;;;;;;;;;;;;16.25;73.89;101848.03;5014754;28;752;-65
2021/10/12 04:17:44;;;;;;;;;;;;;;;16.24;74.35;101843.59;5014451;28;1800;-66
2021/10/12 04:20:09;;;;;;;;;;;;;;;16.24;74.06;101846.31;5014265;28;2023;-66
2021/10/12 04:22:35;;;;;;;;;;;;;;;16.22;74.01;101848.25;5014510;28;923;-65
2021/10/12 04:25:00;;;;;;;;;;;;;;;16.22;73.94;101837.47;5014225;28;1270;-66
2021/10/12 04:27:26;;;;;;;;;;;;;;;16.23;73.81;101827.59;5014223;28;1781;-66
2021/10/12 04:29:52;;;;;;;;;;;;;;;16.20;74.01;101828.66;5014496;28;1161;-65
2021/10/12 04:32:17;;;;;;;;;;;;;;;16.22;73.90;101836.63;5014344;28;748;-64
2021/10/12 04:34:42;;;;;;;;;;;;;;;16.20;74.00;101830.50;5017949;28;1018;-64
2021/10/12 04:37:07;;;;;;;;;;;;;;;16.21;74.06;101829.53;5017888;28;922;-64
2021/10/12 04:39:32;;;;;;;;;;;;;;;16.20;73.88;101823.28;5017715;28;1906;-64
2021/10/12 04:41:58;;;;;;;;;;;;;;;16.22;73.99;101828.56;5017995;28;911;-63
2021/10/12 04:44:23;;;;;;;;;;;;;;;16.20;74.01;101819.72;5017779;28;1822;-67
2021/10/12 04:46:48;;;;;;;;;;;;;;;16.19;74.23;101826.94;5002363;28;1354;-64
2021/10/12 04:49:13;;;;;;;;;;;;;;;16.20;73.97;101820.59;5006984;28;1280;-64
2021/10/12 04:51:38;;;;;;;;;;;;;;;16.21;74.05;101816.06;5007839;28;1535;-65
2021/10/12 04:54:03;;;;;;;;;;;;;;;16.20;74.21;101817.91;5022099;28;1354;-64
2021/10/12 04:56:28;;;;;;;;;;;;;;;16.19;74.32;101818.88;5017868;28;866;-62
2021/10/12 04:58:53;;;;;;;;;;;;;;;16.20;74.10;101807.16;5017409;28;1886;-62
2021/10/12 05:01:18;;;;;;;;;;;;;;;16.20;74.21;101817.03;5015590;28;1777;-64
2021/10/12 05:03:43;;;;;;;;;;;;;;;16.20;74.30;101815.22;5017518;28;930;-64
2021/10/12 05:06:08;;;;;;;;;;;;;;;16.21;73.91;101808.88;5017107;28;1064;-65
2021/10/12 05:08:33;;;;;;;;;;;;;;;16.19;74.04;101815.31;5017628;28;1002;-64
2021/10/12 05:10:59;;;;;;;;;;;;;;;16.20;74.10;101806.28;5010448;28;1706;-65
2021/10/12 05:13:24;;;;;;;;;;;;;;;16.27;76.03;101789.59;5010834;28;1576;-64
2021/10/12 05:15:50;;;;;;;;;;;;;;;16.39;77.37;101798.56;5017394;28;870;-64
2021/10/12 05:18:20;;;;;;;;;;;;;;;16.44;78.05;101788.34;5013798;28;1130;-64
2021/10/12 05:20:45;;;;;;;;;;;;;;;16.41;77.02;101785.88;5009054;28;1972;-64
2021/10/12 05:23:11;;;;;;;;;;;;;;;16.37;77.42;101780.84;5007042;28;1677;-64
2021/10/12 05:25:36;;;;;;;;;;;;;;;16.36;77.39;101776.41;5006899;28;1307;-64
2021/10/12 05:28:01;;;;;;;;;;;;;;;16.37;76.49;101780.84;5007200;28;1462;-64
2021/10/12 05:30:26;;;;;;;;;;;;;;;16.37;76.41;101772.75;5005368;28;1890;-64
2021/10/12 05:32:51;;;;;;;;;;;;;;;16.34;75.81;101771.16;5003737;28;1421;-64
2021/10/12 05:35:16;;;;;;;;;;;;;;;16.33;75.39;101770.28;5015551;28;1686;-62
2021/10/12 05:37:41;;;;;;;;;;;;;;;16.33;75.62;101764.91;5015320;28;1711;-64
2021/10/12 05:40:06;;;;;;;;;;;;;;;16.30;75.47;101759.75;5011785;28;1977;-64
2021/10/12 05:42:31;;;;;;;;;;;;;;;16.29;75.42;101763.44;5006878;28;1447;-64
2021/10/12 05:44:56;;;;;;;;;;;;;;;16.27;75.62;101751.94;5004436;28;1824;-62
2021/10/12 05:47:21;;;;;;;;;;;;;;;16.27;75.64;101753.78;5005168;28;1741;-65
2021/10/12 05:49:46;;;;;;;;;;;;;;;16.26;75.24;101752.06;5002417;28;1522;-65
2021/10/12 05:52:14;;;;;;;;;;;;;;;16.26;75.28;101752.06;5006905;28;1437;-64
2021/10/12 05:54:46;;;;;;;;;;;;;;;16.25;75.69;101748.50;5007086;28;1360;-64
2021/10/12 05:57:20;;;;;;;;;;;;;;;16.25;75.14;101753.03;5006310;28;1300;-64
2021/10/12 05:59:45;;;;;;;;;;;;;;;16.23;75.33;101747.75;5007254;28;1898;-65
2021/10/12 06:02:10;;;;;;;;;;;;;;;16.23;75.42;101746.91;5015825;28;1073;-64
2021/10/12 06:04:35;;;;;;;;;;;;;;;16.22;75.67;101753.25;5031771;28;986;-65
2021/10/12 06:07:01;;;;;;;;;;;;;;;16.22;75.54;101746.03;5009954;28;1308;-64
2021/10/12 06:09:26;;;;;;;;;;;;;;;16.22;75.40;101740.66;4999932;28;1378;-64
2021/10/12 06:11:51;;;;;;;;;;;;;;;16.24;74.85;101743.22;5005877;28;1464;-64
2021/10/12 06:14:16;;;;;;;;;;;;;;;16.22;75.43;101745.19;5005455;28;1635;-64
2021/10/12 06:16:41;;;;;;;;;;;;;;;16.29;74.92;101741.94;5006874;28;1633;-66
2021/10/12 06:19:07;;;;;;;;;;;;;;;16.41;74.68;101731.22;5007530;28;1970;-65
2021/10/12 06:21:32;;;;;;;;;;;;;;;16.42;74.67;101732.94;5016090;28;1897;-66
2021/10/12 06:23:57;;;;;;;;;;;;;;;16.47;74.33;101730.75;5015865;28;1451;-65
2021/10/12 06:26:22;;;;;;;;;;;;;;;16.45;74.42;101720.09;5015491;28;1367;-65
2021/10/12 06:28:47;;;;;;;;;;;;;;;16.48;74.48;101727.09;5014177;28;1855;-62
2021/10/12 06:31:12;;;;;;;;;;;;;;;16.47;74.76;101736.13;5013189;28;1410;-65
2021/10/12 06:33:37;;;;;;;;;;;;;;;16.47;74.88;101733.44;5007711;28;1568;-64
2021/10/12 06:36:02;;;;;;;;;;;;;;;16.48;74.62;101732.47;5005962;28;1729;-63
2021/10/12 06:38:28;;;;;;;;;;;;;;;16.48;74.60;101725.22;5015182;28;1068;-66
2021/10/12 06:40:53;;;;;;;;;;;;;;;16.48;74.84;101724.41;5015107;28;1922;-66
2021/10/12 06:43:19;;;;;;;;;;;;;;;16.48;74.97;101722.53;5015489;28;1313;-65
2021/10/12 06:45:44;;;;;;;;;;;;;;;16.49;74.86;101720.72;5015167;28;1393;-65
2021/10/12 06:48:09;;;;;;;;;;;;;;;16.50;75.06;101725.13;5009463;28;1495;-65
2021/10/12 06:50:34;;;;;;;;;;;;;;;16.52;74.58;101723.19;5027035;28;1460;-66
2021/10/12 06:52:59;;;;;;;;;;;;;;;16.52;74.79;101726.72;5015083;28;1264;-68
2021/10/12 06:55:26;;;;;;;;;;;;;;;16.53;74.86;101728.44;5009131;28;1488;-66
2021/10/12 06:57:51;;;;;;;;;;;;;;;16.52;74.87;101726.72;5014213;28;1276;-66
2021/10/12 07:00:16;;;;;;;;;;;;;;;16.52;74.97;101726.72;5015092;28;1987;-66
2021/10/12 07:02:41;;;;;;;;;;;;;;;16.53;74.59;101722.19;5014438;28;1439;-66
2021/10/12 07:05:06;;;;;;;;;;;;;;;16.53;74.98;101716.81;5014940;28;1440;-67
2021/10/12 07:07:34;;;;;;;;;;;;;;;16.55;74.91;101721.13;5014917;28;1317;-69
2021/10/12 07:09:59;;;;;;;;;;;;;;;16.56;74.80;101721.97;4995341;28;1720;-67
2021/10/12 07:12:24;;;;;;;;;;;;;;;16.58;74.75;101720.88;5002305;28;1159;-68
2021/10/12 07:14:49;;;;;;;;;;;;;;;16.58;74.73;101718.19;5014814;28;1562;-67
2021/10/12 07:17:14;;;;;;;;;;;;;;;16.60;74.55;101718.94;5014816;28;1355;-65
2021/10/12 07:19:39;;;;;;;;;;;;;;;16.61;74.87;101717.97;5013257;28;1965;-65
2021/10/12 07:22:04;;;;;;;;;;;;;;;16.65;74.82;101715.94;5015301;28;1054;-65
2021/10/12 07:24:29;;;;;;;;;;;;;;;16.66;74.99;101714.94;5010471;28;1704;-67
2021/10/12 07:26:54;;;;;;;;;;;;;;;16.70;74.84;101708.34;5007859;28;1905;-69
2021/10/12 07:29:20;;;;;;;;;;;;;;;16.73;74.33;101713.50;5010429;28;1854;-67
2021/10/12 07:31:45;;;;;;;;;;;;;;;16.76;74.46;101707.03;5014445;28;1275;-66
2021/10/12 07:34:10;;;;;;;;;;;;;;;16.73;74.62;101709.94;5014644;28;1486;-66
2021/10/12 07:36:35;;;;;;;;;;;;;;;16.72;75.06;101711.78;5008534;28;1564;-66
2021/10/12 07:39:00;;;;;;;;;;;;;;;16.72;74.26;101708.22;5006685;28;1918;-67
2021/10/12 07:41:25;;;;;;;;;;;;;;;16.71;74.47;101704.69;5006576;28;1402;-68
2021/10/12 07:43:50;;;;;;;;;;;;;;;16.71;74.73;101710.06;5007449;28;1532;-64
2021/10/12 07:46:15;;;;;;;;;;;;;;;16.72;74.46;101703.72;5006958;28;1767;-65
2021/10/12 07:48:40;;;;;;;;;;;;;;;16.73;74.86;101702.72;5002494;28;1426;-63
2021/10/12 07:51:05;;;;;;;;;;;;;;;16.72;74.90;101703.72;5011721;28;1362;-64
2021/10/12 07:53:33;;;;;;;;;;;;;;;16.76;74.69;101701.63;5013749;28;1516;-63
2021/10/12 07:56:01;;;;;;;;;;;;;;;16.72;74.71;101703.72;5005678;28;1184;-62
2021/10/12 07:58:26;;;;;;;;;;;;;;;16.72;75.06;101698.31;5006513;28;1373;-63
2021/10/12 08:00:51;;;;;;;;;;;;;;;16.72;74.96;101701.00;5004833;28;1957;-63
2021/10/12 08:03:17;;;;;;;;;;;;;;;16.74;74.40;101699.06;5005316;28;1502;-63
2021/10/12 08:05:42;;;;;;;;;;;;;;;16.75;74.67;101695.41;5001197;28;1554;-63
2021/10/12 08:08:07;;;;;;;;;;;;;;;16.77;73.69;101696.16;5007316;28;1441;-66
2021/10/12 08:10:33;;;;;;;;;;;;;;;16.79;74.70;101702.28;5022421;28;1412;-62
2021/10/12 08:13:01;;;;;;;;;;;;;;;16.79;74.42;101694.19;5007928;28;1525;-65
2021/10/12 08:15:27;;;;;;;;;;;;;;;16.80;74.37;101687.84;5009132;28;1444;-64
2021/10/12 08:17:52;;;;;;;;;;;;;;;16.79;74.51;101686.13;5007333;28;1549;-65
2021/10/12 08:20:17;;;;;;;;;;;;;;;16.80;74.67;101681.59;5009096;28;1902;-65
2021/10/12 08:22:42;;;;;;;;;;;;;;;16.80;74.62;101677.06;5015014;28;1725;-67
2021/10/12 08:25:08;;;;;;;;;;;;;;;16.81;74.53;101683.31;5019110;28;1208;-64
2021/10/12 08:27:33;;;;;;;;;;;;;;;16.81;74.42;101686.00;5013864;28;1741;-66
2021/10/12 08:29:58;;;;;;;;;;;;;;;16.83;74.83;101687.59;5005941;28;1557;-66
2021/10/12 08:32:23;;;;;;;;;;;;;;;16.79;74.71;101702.28;5014620;28;1601;-67
2021/10/12 08:34:48;;;;;;;;;;;;;;;16.79;74.92;101701.41;5017935;28;812;-64
2021/10/12 08:37:13;;;;;;;;;;;;;;;16.83;75.09;101702.91;5015249;28;1659;-66
2021/10/12 08:39:42;;;;;;;;;;;;;;;16.81;74.73;101702.16;5012362;28;1926;-65
2021/10/12 08:42:07;;;;;;;;;;;;;;;16.81;74.33;101708.41;5029361;28;1583;-63
2021/10/12 08:44:32;;;;;;;;;;;;;;;16.82;74.51;101711.94;5012785;28;1229;-63
2021/10/12 08:46:58;;;;;;;;;;;;;;;16.80;74.21;101706.69;5016418;28;1492;-62
2021/10/12 08:49:23;;;;;;;;;;;;;;;16.81;75.00;101703.00;5017561;28;1348;-63
2021/10/12 08:51:48;;;;;;;;;;;;;;;16.83;74.35;101706.44;5017463;28;1275;-63
2021/10/12 08:54:14;;;;;;;;;;;;;;;16.82;74.46;101702.03;5017228;28;1300;-64
2021/10/12 08:56:39;;;;;;;;;;;;;;;16.82;74.01;101683.19;5017689;28;1331;-64
2021/10/12 08:59:04;;;;;;;;;;;;;;;16.85;74.67;101691.00;5016894;28;1894;-65
2021/10/12 09:01:31;;;;;;;;;;;;;;;16.85;74.37;101704.47;5017078;28;1287;-66
2021/10/12 09:06:22;;;;;;;;;;;;;;;16.89;74.52;101697.00;5016124;28;1373;-64
2021/10/12 09:08:47;;;;;;;;;;;;;;;16.94;74.41;101687.63;5006740;28;1203;-65
2021/10/12 09:11:12;;;;;;;;;;;;;;;16.94;73.83;101681.38;5016308;28;1425;-65
2021/10/12 09:13:37;;;;;;;;;;;;;;;16.92;74.18;101678.78;5013702;28;1367;-66
2021/10/12 09:16:02;;;;;;;;;;;;;;;16.95;74.52;101675.88;5013318;28;1777;-67
2021/10/12 09:18:27;;;;;;;;;;;;;;;16.98;74.28;101681.00;4997132;28;1061;-66
2021/10/12 09:20:52;;;;;;;;;;;;;;;16.99;74.08;101669.28;4997508;28;1898;-66
2021/10/12 09:23:17;;;;;;;;;;;;;;;16.99;74.26;101665.72;5004997;28;1392;-64
2021/10/12 09:25:42;;;;;;;;;;;;;;;16.99;74.06;101668.41;5017296;28;1154;-64
2021/10/12 09:28:08;;;;;;;;;;;;;;;17.00;74.39;101670.97;5017475;28;1030;-64
2021/10/12 09:30:33;;;;;;;;;;;;;;;17.02;74.25;101682.47;5016958;28;1216;-64
2021/10/12 09:32:58;;;;;;;;;;;;;;;17.04;74.06;101668.03;5017126;28;910;-65
2021/10/12 09:35:23;;;;;;;;;;;;;;;17.06;74.48;101661.53;5016727;28;2176;-64
2021/10/12 09:37:48;;;;;;;;;;;;;;;17.13;73.92;101662.78;5017097;28;1072;-63
2021/10/12 09:40:13;;;;;;;;;;;;;;;17.17;74.11;101652.63;5031686;28;1914;-63
2021/10/12 09:42:38;;;;;;;;;;;;;;;17.22;73.91;101662.03;5016790;28;1801;-63
2021/10/12 09:45:04;;;;;;;;;;;;;;;17.29;73.75;101663.28;5016726;28;1797;-65
2021/10/12 09:47:29;;;;;;;;;;;;;;;17.33;73.34;101663.88;5016686;28;808;-64
2021/10/12 09:49:54;;;;;;;;;;;;;;;17.35;73.21;101662.78;5016723;28;1010;-66
2021/10/12 09:52:22;;;;;;;;;;;;;;;17.39;73.54;101657.13;5016314;28;1013;-67
2021/10/12 09:54:52;;;;;;;;;;;;;;;17.43;73.70;101659.47;5016405;28;937;-63
2021/10/12 09:57:17;;;;;;;;;;;;;;;17.44;73.74;101666.56;5031649;28;751;-64
2021/10/12 09:59:42;;;;;;;;;;;;;;;17.47;73.57;101665.47;5016522;28;1960;-65
2021/10/12 10:02:07;;;;;;;;;;;;;;;17.47;73.15;101663.63;5015933;28;1759;-68
2021/10/12 10:04:32;;;;;;;;;;;;;;;17.48;73.04;101654.56;5016286;28;784;-66
2021/10/12 10:06:58;;;;;;;;;;;;;;;17.47;73.73;101666.31;5016363;28;970;-63
2021/10/12 10:09:23;;;;;;;;;;;;;;;17.49;73.17;101669.75;5015982;28;990;-62
2021/10/12 10:11:48;;;;;;;;;;;;;;;17.48;73.10;101665.34;5016387;28;1017;-64
2021/10/12 10:14:13;;;;;;;;;;;;;;;17.48;72.99;101668.03;5015454;28;1556;-66
2021/10/12 10:16:39;;;;;;;;;;;;;;;17.39;73.89;101660.69;5015101;28;815;-66
2021/10/12 10:19:04;;;;;;;;;;;;;;;17.35;73.67;101670.88;5016447;28;1928;-66
2021/10/12 10:21:29;;;;;;;;;;;;;;;17.30;73.72;101673.06;5024954;28;1580;-65
2021/10/12 10:23:57;;;;;;;;;;;;;;;17.28;73.39;101674.16;5027946;28;1514;-66
2021/10/12 10:26:22;;;;;;;;;;;;;;;17.28;73.83;101671.47;5008862;28;1530;-66
2021/10/12 10:28:47;;;;;;;;;;;;;;;17.27;73.27;101676.00;5007617;28;1627;-66
2021/10/12 10:31:12;;;;;;;;;;;;;;;17.28;73.21;101671.47;5002601;28;1521;-65
2021/10/12 10:33:39;;;;;;;;;;;;;;;17.28;73.03;101666.09;5002646;28;1632;-65
2021/10/12 10:36:04;;;;;;;;;;;;;;;17.27;72.98;101670.63;5012103;28;1401;-66
2021/10/12 10:38:29;;;;;;;;;;;;;;;17.28;73.28;101676.84;5015785;28;1660;-66
2021/10/12 10:40:54;;;;;;;;;;;;;;;17.28;72.88;101668.78;5015587;28;1985;-65
2021/10/12 10:43:19;;;;;;;;;;;;;;;17.29;72.62;101673.19;5007915;28;1789;-68
2021/10/12 10:45:44;;;;;;;;;;;;;;;17.33;72.85;101669.28;5009286;28;1619;-62
2021/10/12 10:48:09;;;;;;;;;;;;;;;17.41;73.19;101674.03;5015121;28;1890;-63
2021/10/12 10:50:34;;;;;;;;;;;;;;;17.46;73.35;101683.47;5000409;28;1631;-63
2021/10/12 10:52:59;;;;;;;;;;;;;;;17.47;72.77;101681.63;5001385;28;1795;-64
2021/10/12 10:55:24;;;;;;;;;;;;;;;17.52;72.83;101682.97;5000873;28;1562;-66
2021/10/12 10:57:49;;;;;;;;;;;;;;;17.55;73.35;101680.03;5010936;28;1804;-64
2021/10/12 11:00:15;;;;;;;;;;;;;;;17.57;73.11;101680.75;5009593;28;1898;-64
2021/10/12 11:02:40;;;;;;;;;;;;;;;17.59;73.23;101681.47;5015685;28;1430;-66
2021/10/12 11:05:05;;;;;;;;;;;;;;;17.60;72.72;101683.19;5015454;28;1484;-63
2021/10/12 11:07:30;;;;;;;;;;;;;;;17.62;72.61;101683.09;5015523;28;1653;-64
2021/10/12 11:09:55;;;;;;;;;;;;;;;17.61;73.35;101674.13;5011535;28;1700;-65
2021/10/12 11:12:21;;;;;;;;;;;;;;;17.64;72.71;101691.94;5008427;28;1437;-63
2021/10/12 11:14:46;;;;;;;;;;;;;;;17.66;73.07;101693.53;5008603;28;1716;-65
2021/10/12 11:17:11;;;;;;;;;;;;;;;17.66;73.39;101687.28;5009082;28;1889;-63
2021/10/12 11:19:36;;;;;;;;;;;;;;;17.67;73.29;101687.16;5005678;28;1902;-63
2021/10/12 11:22:01;;;;;;;;;;;;;;;17.69;72.84;101687.03;5008076;28;1627;-63
2021/10/12 11:24:26;;;;;;;;;;;;;;;17.72;73.09;101681.41;5015244;28;1088;-64
2021/10/12 11:26:51;;;;;;;;;;;;;;;17.77;73.04;101683.69;5013723;28;1610;-64
2021/10/12 11:29:16;;;;;;;;;;;;;;;17.78;73.02;101674.63;4996520;28;1626;-64
2021/10/12 11:31:41;;;;;;;;;;;;;;;17.80;72.68;101667.28;4995269;28;867;-64
2021/10/12 11:34:06;;;;;;;;;;;;;;;17.81;73.11;101663.59;4995904;28;1691;-62
2021/10/12 11:36:31;;;;;;;;;;;;;;;17.84;73.06;101682.22;4995851;28;944;-63
2021/10/12 11:38:57;;;;;;;;;;;;;;;17.86;72.72;101682.97;4995188;28;1978;-66
2021/10/12 11:41:22;;;;;;;;;;;;;;;17.88;72.73;101686.38;5003826;28;1966;-67
2021/10/12 11:43:47;;;;;;;;;;;;;;;17.85;73.00;101678.53;5021616;28;858;-67
2021/10/12 11:46:12;;;;;;;;;;;;;;;17.86;72.77;101682.97;5021718;28;859;-65
2021/10/12 11:48:37;;;;;;;;;;;;;;;17.86;73.19;101685.66;5020706;28;1895;-64
2021/10/12 11:51:02;;;;;;;;;;;;;;;17.83;73.09;101683.22;5021718;28;1907;-64
2021/10/12 11:53:28;;;;;;;;;;;;;;;17.81;72.55;101679.78;5021551;28;863;-67
2021/10/12 11:55:53;;;;;;;;;;;;;;;17.81;72.83;101682.47;5021604;28;850;-65
2021/10/12 11:58:18;;;;;;;;;;;;;;;17.84;73.10;101682.22;5020432;28;848;-67
2021/10/12 12:00:43;;;;;;;;;;;;;;;17.88;73.38;101681.00;5021432;28;1902;-64
2021/10/12 12:03:08;;;;;;;;;;;;;;;17.88;72.95;101689.09;5018312;28;1800;-64
2021/10/12 12:05:33;;;;;;;;;;;;;;;17.88;72.68;101675.59;5013683;28;1616;-64
2021/10/12 12:07:58;;;;;;;;;;;;;;;17.88;72.63;101672.91;5021632;28;827;-61
2021/10/12 12:10:23;;;;;;;;;;;;;;;17.89;72.62;101678.19;5017414;28;1530;-60
2021/10/12 12:12:48;;;;;;;;;;;;;;;17.91;72.47;101676.22;5011303;28;1639;-62
2021/10/12 12:15:13;;;;;;;;;;;;;;;17.96;72.81;101678.50;5015701;28;1593;-64
2021/10/12 12:17:39;;;;;;;;;;;;;;;17.99;72.59;101675.56;5008912;28;1885;-61
2021/10/12 12:20:04;;;;;;;;;;;;;;;18.02;72.67;101675.31;5002279;28;1902;-62
2021/10/12 12:22:29;;;;;;;;;;;;;;;18.03;72.70;101679.72;5006270;28;1769;-61
2021/10/12 12:24:55;;;;;;;;;;;;;;;18.07;72.58;101678.50;5003510;28;1931;-64
2021/10/12 12:27:20;;;;;;;;;;;;;;;18.12;72.03;101668.16;5021009;28;1283;-64
2021/10/12 12:29:45;;;;;;;;;;;;;;;18.16;72.74;101675.00;5021445;28;1294;-63
2021/10/12 12:32:10;;;;;;;;;;;;;;;18.20;72.42;101664.81;5021233;28;1324;-62
2021/10/12 12:34:35;;;;;;;;;;;;;;;18.25;71.60;101668.84;5016000;28;1599;-63
2021/10/12 12:37:00;;;;;;;;;;;;;;;18.30;72.41;101676.53;5009907;28;1713;-62
2021/10/12 12:39:25;;;;;;;;;;;;;;;18.31;72.35;101671.03;5020871;28;1973;-63
2021/10/12 12:41:50;;;;;;;;;;;;;;;18.35;72.24;101668.94;5021495;28;780;-63